Time;durP1;ratioP1;P1;durP2;ratioP2;P2;SDS_P1;SDS_P2;PMS_P1;PMS_P2;Temp;Humidity;BMP_temperature;BMP_pressure;BME280_temperature;BME280_humidity;BME280_pressure;Samples;Min_cycle;Max_cycle;Signal;HPM_P1;HPM_P2
2021/11/17 02:27:13;;;;;;;62.90;29.80;;;;;;;4.81;100.00;102009.69;5093780;28;20088;-35
2021/11/17 02:30:00;;;;;;;60.22;29.15;;;;;;;4.72;100.00;101994.59;5093972;28;20028;-35
2021/11/17 02:32:32;;;;;;;63.35;29.95;;;;;;;4.74;100.00;101997.97;5093677;28;20024;-35
2021/11/17 02:35:04;;;;;;;61.75;29.02;;;;;;;4.61;100.00;101995.75;5093601;28;20107;-35
2021/11/17 02:37:55;;;;;;;63.50;29.23;;;;;;;4.73;100.00;102012.34;5093850;28;20032;-35
2021/11/17 02:40:39;;;;;;;68.20;29.67;;;;;;;4.71;100.00;102008.16;5071596;28;20037;-35
2021/11/17 02:43:36;;;;;;;66.10;30.40;;;;;;;4.72;100.00;101994.59;5070913;28;20500;-35
2021/11/17 02:46:13;;;;;;;62.15;28.48;;;;;;;4.70;100.00;101998.47;5071098;28;20045;-36
2021/11/17 02:48:44;;;;;;;63.45;28.85;;;;;;;4.72;100.00;101997.28;5071347;28;20071;-35
2021/11/17 02:51:41;;;;;;;62.47;28.50;;;;;;;4.75;100.00;102006.84;5070774;28;20037;-36
2021/11/17 02:54:25;;;;;;;61.97;27.53;;;;;;;4.74;100.00;102003.31;5071050;28;20071;-34
2021/11/17 02:57:17;;;;;;;68.05;28.70;;;;;;;4.76;100.00;102025.41;5070535;28;20032;-35
2021/11/17 02:59:54;;;;;;;63.08;28.33;;;;;;;4.76;100.00;102024.59;5070977;28;20056;-35
2021/11/17 03:02:31;;;;;;;59.33;28.85;;;;;;;4.76;100.00;102020.06;5070737;28;20161;-35
2021/11/17 03:05:25;;;;;;;61.33;28.42;;;;;;;4.82;100.00;102018.56;5071195;28;20048;-35
2021/11/17 03:08:12;;;;;;;61.75;26.67;;;;;;;4.80;100.00;102018.75;5071409;28;20029;-35
2021/11/17 03:11:05;;;;;;;58.20;27.65;;;;;;;4.83;100.00;102013.06;5071045;28;20040;-36
2021/11/17 03:14:01;;;;;;;64.85;28.95;;;;;;;4.84;100.00;102014.72;5070737;28;20053;-35
2021/11/17 03:16:38;;;;;;;66.30;30.30;;;;;;;4.81;100.00;102014.22;5073876;28;20032;-35
2021/11/17 03:19:12;;;;;;;63.72;29.85;;;;;;;4.71;100.00;102000.13;5093252;28;20031;-35
2021/11/17 03:22:05;;;;;;;61.03;28.15;;;;;;;4.83;100.00;102023.78;5093368;28;20028;-35
2021/11/17 03:24:46;;;;;;;65.90;29.05;;;;;;;4.82;100.00;102016.72;5093525;28;20376;-35
2021/11/17 03:27:33;;;;;;;59.58;27.80;;;;;;;4.87;100.00;102018.91;5092700;28;20113;-35
2021/11/17 03:29:59;;;;;;;61.33;27.00;;;;;;;4.85;100.00;102015.56;5093759;28;20324;-35
2021/11/17 03:32:40;;;;;;;66.50;27.77;;;;;;;4.87;100.00;102014.38;5092678;28;20028;-35
2021/11/17 03:35:16;;;;;;;67.78;28.52;;;;;;;4.85;100.00;102015.56;5093417;28;20384;-35
2021/11/17 03:37:50;;;;;;;64.50;28.42;;;;;;;4.87;100.00;102005.50;5093498;28;20024;-35
2021/11/17 03:40:25;;;;;;;62.05;27.83;;;;;;;4.84;100.00;101998.66;5093151;28;20031;-35
2021/11/17 03:42:59;;;;;;;62.70;27.30;;;;;;;4.85;100.00;101997.63;5096521;28;20036;-35
2021/11/17 03:45:58;;;;;;;63.53;27.40;;;;;;;4.86;100.00;102009.19;5096688;28;20035;-35
2021/11/17 03:49:01;;;;;;;62.92;27.88;;;;;;;4.91;100.00;102010.38;5096333;28;20020;-35
2021/11/17 03:51:32;;;;;;;60.50;27.13;;;;;;;4.90;100.00;102006.03;5096697;28;20095;-35
2021/11/17 03:54:16;;;;;;;64.78;27.50;;;;;;;4.93;100.00;102002.19;5097163;28;20050;-35
2021/11/17 03:57:25;;;;;;;61.60;27.58;;;;;;;4.94;100.00;102000.34;5096483;28;20028;-35
2021/11/17 04:00:12;;;;;;;62.72;26.02;;;;;;;4.94;100.00;101997.66;5097097;28;20036;-35
2021/11/17 04:02:50;;;;;;;64.25;27.73;;;;;;;4.97;100.00;102003.50;5096600;28;20372;-35
2021/11/17 04:05:22;;;;;;;62.08;28.20;;;;;;;4.86;100.00;101983.22;5096611;28;20038;-35
2021/11/17 04:08:10;;;;;;;60.70;27.48;;;;;;;4.97;100.00;101986.59;5096324;28;20520;-35
2021/11/17 04:10:56;;;;;;;60.80;26.10;;;;;;;4.98;100.00;102010.56;5096705;28;20032;-35
2021/11/17 04:13:49;;;;;;;58.88;26.38;;;;;;;5.00;100.00;102016.59;5096453;28;20028;-35
2021/11/17 04:17:11;;;;;;;56.22;25.50;;;;;;;5.03;100.00;102010.91;5096925;28;20426;-35
2021/11/17 04:19:43;;;;;;;57.47;26.98;;;;;;;5.02;100.00;102016.41;5073456;28;20032;-35
2021/11/17 04:22:35;;;;;;;59.03;26.20;;;;;;;5.04;100.00;102017.09;5073355;28;20102;-35
2021/11/17 04:25:38;;;;;;;55.45;24.95;;;;;;;5.07;100.00;102019.44;5073416;28;20040;-35
2021/11/17 04:28:18;;;;;;;56.55;26.02;;;;;;;5.04;100.00;102009.91;5073535;28;20132;-35
2021/11/17 04:31:02;;;;;;;63.38;26.50;;;;;;;5.07;100.00;102019.44;5073328;28;20123;-35
2021/11/17 04:33:37;;;;;;;57.08;25.98;;;;;;;5.07;100.00;102019.44;5073387;28;20040;-35
2021/11/17 04:36:08;;;;;;;56.47;27.38;;;;;;;5.07;100.00;102022.13;5073111;28;20032;-35
2021/11/17 04:38:36;;;;;;;60.63;25.98;;;;;;;5.09;100.00;102017.44;5073416;28;20055;-35
2021/11/17 04:41:27;;;;;;;61.78;26.38;;;;;;;5.00;100.00;101997.00;5073689;28;20040;-35
2021/11/17 04:44:04;;;;;;;55.78;25.58;;;;;;;5.12;100.00;102011.72;5073393;28;20036;-35
2021/11/17 04:46:35;;;;;;;57.67;26.25;;;;;;;5.11;100.00;102004.69;5073367;28;20056;-35
2021/11/17 04:49:29;;;;;;;59.72;27.13;;;;;;;5.12;100.00;101991.16;5073471;28;20063;-35
2021/11/17 04:51:54;;;;;;;58.35;25.23;;;;;;;5.08;100.00;101988.97;4993987;28;20041;-35
2021/11/17 04:54:45;;;;;;;60.43;26.33;;;;;;;5.08;100.00;101979.06;5025966;28;20493;-35
2021/11/17 04:57:39;;;;;;;58.20;26.63;;;;;;;5.08;100.00;101970.19;5033643;28;20057;-35
2021/11/17 05:00:31;;;;;;;60.75;27.15;;;;;;;5.07;100.00;101971.19;4993833;28;20370;-35
2021/11/17 05:03:29;;;;;;;65.93;29.05;;;;;;;5.06;100.00;101961.47;4993378;28;20042;-35
2021/11/17 05:06:03;;;;;;;68.47;29.02;;;;;;;4.99;100.00;101933.66;4993371;28;20050;-35
2021/11/17 05:08:56;;;;;;;63.72;27.50;;;;;;;5.05;100.00;101951.75;4993760;28;20120;-35
2021/11/17 05:11:36;;;;;;;58.95;25.50;;;;;;;5.04;100.00;101950.09;4993490;28;20046;-35
2021/11/17 05:14:13;;;;;;;61.45;27.48;;;;;;;5.06;100.00;101972.19;4993315;28;20054;-35
2021/11/17 05:16:58;;;;;;;60.40;26.50;;;;;;;5.05;100.00;101968.66;4993291;28;20141;-35
2021/11/17 05:19:33;;;;;;;62.75;27.58;;;;;;;5.05;100.00;101973.19;4986292;28;20042;-35
2021/11/17 05:22:13;;;;;;;61.50;28.77;;;;;;;5.05;100.00;101967.84;4993479;28;20138;-35
2021/11/17 05:25:06;;;;;;;58.38;26.75;;;;;;;5.06;100.00;101974.88;4993176;28;20170;-35
2021/11/17 05:27:50;;;;;;;61.08;27.15;;;;;;;5.03;100.00;101965.34;4993733;28;20026;-35
2021/11/17 05:30:24;;;;;;;61.58;26.90;;;;;;;5.05;100.00;101974.03;5072319;28;20043;-35
2021/11/17 05:33:11;;;;;;;56.15;25.48;;;;;;;5.06;100.00;101966.81;5072379;28;20037;-35
2021/11/17 05:35:58;;;;;;;56.45;26.02;;;;;;;5.02;100.00;101958.28;5075312;28;20036;-35
2021/11/17 05:38:44;;;;;;;60.63;27.55;;;;;;;4.79;100.00;101919.75;5094550;28;20028;-35
2021/11/17 05:41:28;;;;;;;60.88;27.08;;;;;;;5.02;100.00;101957.44;5094546;28;20036;-35
2021/11/17 05:44:02;;;;;;;59.50;26.55;;;;;;;4.82;100.00;101925.59;5094493;28;20107;-35
2021/11/17 05:46:33;;;;;;;58.47;25.30;;;;;;;4.97;100.00;101944.53;5094730;28;20034;-35
2021/11/17 05:49:23;;;;;;;67.85;27.10;;;;;;;5.01;100.00;101953.91;5095188;28;20041;-35
2021/11/17 05:52:00;;;;;;;62.47;27.85;;;;;;;5.01;100.00;101953.09;5094863;28;20103;-35
2021/11/17 05:54:31;;;;;;;59.50;26.77;;;;;;;4.91;100.00;101946.03;5094833;28;20081;-35
2021/11/17 05:57:11;;;;;;;57.28;25.88;;;;;;;4.95;100.00;101943.03;5094274;28;20050;-35
2021/11/17 05:59:42;;;;;;;68.45;28.67;;;;;;;5.01;100.00;101961.13;5094694;28;20039;-35
2021/11/17 06:02:28;;;;;;;69.03;28.98;;;;;;;4.75;100.00;101929.97;5093858;28;20024;-35
2021/11/17 06:04:53;;;;;;;63.95;27.60;;;;;;;4.93;100.00;101961.97;5093645;28;20072;-35
2021/11/17 06:07:18;;;;;;;64.00;27.63;;;;;;;5.02;100.00;101963.63;5094097;28;20024;-35
2021/11/17 06:09:44;;;;;;;64.43;27.40;;;;;;;4.96;100.00;101961.63;5094094;28;20479;-35
2021/11/17 06:12:15;;;;;;;58.37;26.63;;;;;;;5.07;100.00;101973.84;5094223;28;20028;-35
2021/11/17 06:14:44;;;;;;;63.97;26.98;;;;;;;5.09;100.00;101971.88;5094248;28;20048;-35
2021/11/17 06:17:15;;;;;;;59.15;27.58;;;;;;;5.11;100.00;101983.25;5093844;28;20101;-35
2021/11/17 06:19:44;;;;;;;57.63;26.08;;;;;;;5.14;100.00;101982.94;5093536;28;20031;-35
2021/11/17 06:22:10;;;;;;;63.40;27.90;;;;;;;5.14;100.00;101975.72;5093216;28;20423;-35
2021/11/17 06:24:37;;;;;;;59.13;27.67;;;;;;;5.19;100.00;101979.75;5094594;28;20389;-35
2021/11/17 06:27:06;;;;;;;64.65;26.92;;;;;;;5.12;100.00;101966.16;5093385;28;20085;-35
2021/11/17 06:29:37;;;;;;;61.30;27.88;;;;;;;5.15;100.00;101966.66;5094100;28;20122;-35
2021/11/17 06:32:04;;;;;;;63.90;28.48;;;;;;;5.22;100.00;101979.38;5093805;28;20074;-35
2021/11/17 06:34:39;;;;;;;60.60;27.58;;;;;;;5.25;100.00;101979.91;5093652;28;20036;-35
2021/11/17 06:37:14;;;;;;;58.90;25.17;;;;;;;5.30;100.00;101984.75;5093523;28;20031;-35
2021/11/17 06:39:43;;;;;;;58.88;26.20;;;;;;;5.29;100.00;101999.19;5094008;28;20089;-35
2021/11/17 06:42:12;;;;;;;56.83;26.65;;;;;;;5.21;100.00;101983.91;5093465;28;20534;-35
2021/11/17 06:44:40;;;;;;;62.45;27.35;;;;;;;5.32;100.00;101999.69;5093789;28;20031;-35
2021/11/17 06:47:05;;;;;;;57.53;27.15;;;;;;;5.35;100.00;101999.34;5084116;28;20036;-35
2021/11/17 06:49:31;;;;;;;54.20;24.83;;;;;;;5.35;100.00;102006.53;5073777;28;20310;-35
2021/11/17 06:51:56;;;;;;;55.30;25.33;;;;;;;5.36;100.00;102010.91;5073279;28;20195;-35
2021/11/17 06:54:22;;;;;;;61.27;28.47;;;;;;;5.37;100.00;102005.38;5073238;28;20029;-35
2021/11/17 06:56:48;;;;;;;50.83;24.23;;;;;;;5.39;100.00;102006.03;5073338;28;20471;-35
2021/11/17 06:59:13;;;;;;;55.55;26.98;;;;;;;5.32;100.00;101991.66;5072781;28;20025;-35
2021/11/17 07:01:38;;;;;;;61.33;27.20;;;;;;;5.39;100.00;102000.69;5071811;28;20068;-35
2021/11/17 07:04:04;;;;;;;61.47;25.37;;;;;;;5.41;100.00;102013.91;5073579;28;20039;-35
2021/11/17 07:06:29;;;;;;;53.23;25.50;;;;;;;5.35;100.00;101999.34;5072640;28;20127;-35
2021/11/17 07:08:55;;;;;;;59.03;27.00;;;;;;;5.43;100.00;102010.06;5073053;28;20032;-35
2021/11/17 07:11:20;;;;;;;61.42;27.25;;;;;;;5.45;100.00;102001.84;5073110;28;20077;-35
2021/11/17 07:13:46;;;;;;;60.28;26.73;;;;;;;5.31;100.00;101984.59;5073259;28;20337;-35
2021/11/17 07:16:11;;;;;;;65.77;28.33;;;;;;;5.47;100.00;102009.75;5073309;28;20369;-35
2021/11/17 07:18:37;;;;;;;55.27;24.60;;;;;;;5.49;100.00;102011.25;5077673;28;20028;-35
2021/11/17 07:21:03;;;;;;;;;;;;;;;5.53;100.00;102019.78;5077610;28;20496;-35
2021/11/17 07:23:29;;;;;;;57.63;24.50;;;;;;;5.53;100.00;102025.16;5076899;28;19965;-35
2021/11/17 07:25:54;;;;;;;59.08;25.67;;;;;;;5.52;100.00;102029.69;5076852;28;20490;-35
2021/11/17 07:28:20;;;;;;;57.67;26.93;;;;;;;5.56;100.00;102044.44;5077087;28;20029;-35
2021/11/17 07:30:45;;;;;;;56.97;26.70;;;;;;;5.56;100.00;102035.53;5076810;28;20029;-35
2021/11/17 07:33:13;;;;;;;58.38;27.88;;;;;;;5.50;100.00;102014.75;5076747;28;20029;-35
2021/11/17 07:35:41;;;;;;;64.07;27.85;;;;;;;5.60;100.00;102020.78;5076561;28;20111;-35
2021/11/17 07:38:10;;;;;;;59.83;27.33;;;;;;;5.63;100.00;102031.19;5076546;28;20036;-35
2021/11/17 07:40:40;;;;;;;64.05;28.33;;;;;;;5.54;100.00;102010.72;5077124;28;20491;-35
2021/11/17 07:43:09;;;;;;;65.85;28.45;;;;;;;5.57;100.00;102023.81;5076377;28;20037;-35
2021/11/17 07:45:35;;;;;;;58.10;26.27;;;;;;;5.68;100.00;102029.66;5077206;28;20114;-35
2021/11/17 07:48:00;;;;;;;65.80;28.98;;;;;;;5.68;100.00;102026.97;5076320;28;20028;-35
2021/11/17 07:50:26;;;;;;;58.83;27.60;;;;;;;5.64;100.00;102011.38;5076700;28;20032;-35
2021/11/17 07:52:51;;;;;;;61.30;27.52;;;;;;;5.72;100.00;102019.44;5076322;28;20274;-35
2021/11/17 07:55:18;;;;;;;53.13;26.27;;;;;;;5.78;100.00;102018.75;5076020;28;20038;-35
2021/11/17 07:57:48;;;;;;;62.22;26.83;;;;;;;5.79;100.00;102012.38;5076709;28;20029;-35
2021/11/17 08:00:27;;;;;;;64.03;29.58;;;;;;;5.80;100.00;101997.94;5075839;28;20024;-35
2021/11/17 08:02:53;;;;;;;63.50;28.52;;;;;;;5.84;100.00;102012.69;5076499;28;20067;-35
2021/11/17 08:05:21;;;;;;;58.97;27.02;;;;;;;5.78;100.00;102001.81;5075839;28;20078;-35
2021/11/17 08:07:47;;;;;;;65.82;28.98;;;;;;;5.81;100.00;102007.69;5075679;28;20021;-35
2021/11/17 08:10:16;;;;;;;66.57;28.38;;;;;;;5.91;100.00;102034.34;5076067;28;20035;-35
2021/11/17 08:12:42;;;;;;;61.65;27.67;;;;;;;5.93;100.00;102043.91;5075976;28;20384;-35
2021/11/17 08:15:08;;;;;;;73.20;31.80;;;;;;;5.97;100.00;102049.78;5075647;28;20044;-35
2021/11/17 08:17:34;;;;;;;61.60;28.50;;;;;;;5.90;100.00;102043.38;5075058;28;20083;-35
2021/11/17 08:19:59;;;;;;;62.67;28.07;;;;;;;5.91;100.00;102051.31;5075216;28;20457;-35
2021/11/17 08:22:24;;;;;;;66.40;29.50;;;;;;;6.01;100.00;102069.09;5074765;28;20379;-35
2021/11/17 08:24:50;;;;;;;72.27;29.90;;;;;;;6.03;100.00;102069.75;5074808;28;20062;-35
2021/11/17 08:27:20;;;;;;;71.33;31.27;;;;;;;6.06;100.00;102075.63;5074245;28;20054;-35
2021/11/17 08:29:48;;;;;;;78.88;31.83;;;;;;;5.90;100.00;102033.50;5074852;28;20050;-35
2021/11/17 08:32:14;;;;;;;72.47;32.70;;;;;;;6.09;100.00;102063.69;5074553;28;20032;-35
2021/11/17 08:34:39;;;;;;;79.97;34.38;;;;;;;6.09;100.00;102067.19;5075364;28;20068;-35
2021/11/17 08:37:05;;;;;;;79.03;33.00;;;;;;;6.11;100.00;102062.50;5074744;28;20116;-35
2021/11/17 08:39:31;;;;;;;85.95;34.85;;;;;;;6.13;100.00;102062.31;5074962;28;20089;-35
2021/11/17 08:41:57;;;;;;;74.45;32.50;;;;;;;6.13;100.00;102044.34;5074553;28;20543;-35
2021/11/17 08:44:22;;;;;;;83.70;34.30;;;;;;;6.17;100.00;102052.91;5074712;28;20095;-35
2021/11/17 08:46:48;;;;;;;89.77;37.30;;;;;;;6.19;100.00;102058.94;5074120;28;20024;-35
2021/11/17 08:49:13;;;;;;;83.30;33.40;;;;;;;6.05;100.00;102033.66;5074402;28;20066;-35
2021/11/17 08:51:39;;;;;;;89.80;34.47;;;;;;;6.24;100.00;102061.13;5073958;28;20509;-35
2021/11/17 08:54:05;;;;;;;88.97;35.03;;;;;;;6.14;100.00;102043.34;5075090;28;20036;-35
2021/11/17 08:56:32;;;;;;;90.15;34.60;;;;;;;6.27;100.00;102058.09;5074511;28;20034;-35
2021/11/17 08:58:57;;;;;;;97.22;35.88;;;;;;;6.29;100.00;102064.94;5074720;28;20031;-35
2021/11/17 09:01:23;;;;;;;86.73;34.57;;;;;;;6.32;100.00;102070.00;5074975;28;20024;-35
2021/11/17 09:03:48;;;;;;;91.23;34.60;;;;;;;6.35;100.00;102071.50;5074695;28;20024;-35
2021/11/17 09:06:14;;;;;;;101.88;36.78;;;;;;;6.35;100.00;102077.72;5074009;28;20392;-35
2021/11/17 09:08:42;;;;;;;94.68;36.05;;;;;;;6.38;100.00;102079.19;5074558;28;20043;-36
2021/11/17 09:11:12;;;;;;;102.75;36.08;;;;;;;6.38;100.00;102077.34;5073940;28;20025;-35
2021/11/17 09:13:39;;;;;;;99.70;37.17;;;;;;;6.43;100.00;102087.59;5036116;28;1077096;-35
2021/11/17 09:16:05;;;;;;;92.00;37.08;;;;;;;6.47;100.00;102082.72;5075212;28;20397;-35
2021/11/17 09:18:33;;;;;;;99.85;38.03;;;;;;;6.51;100.00;102076.81;5075195;28;20035;-35
2021/11/17 09:20:59;;;;;;;100.75;39.00;;;;;;;6.55;100.00;102080.00;5074963;28;20039;-35
2021/11/17 09:23:27;;;;;;;103.10;38.00;;;;;;;6.60;100.00;102083.00;5074711;28;20028;-35
2021/11/17 09:25:54;;;;;;;108.03;39.30;;;;;;;6.62;100.00;102081.78;5075338;28;20032;-35
2021/11/17 09:28:20;;;;;;;110.35;40.30;;;;;;;6.66;100.00;102084.97;5074596;28;20040;-35
2021/11/17 09:30:46;;;;;;;109.95;41.28;;;;;;;6.66;100.00;102082.28;5074579;28;20035;-35
2021/11/17 09:33:14;;;;;;;104.07;37.78;;;;;;;6.63;100.00;102078.09;5074610;28;20111;-35
2021/11/17 09:35:44;;;;;;;109.45;41.75;;;;;;;6.71;100.00;102090.66;5074619;28;20055;-35
2021/11/17 09:38:12;;;;;;;137.25;44.33;;;;;;;6.77;100.00;102089.97;5074206;28;20040;-35
2021/11/17 09:40:39;;;;;;;115.15;40.75;;;;;;;6.76;100.00;102082.91;5073391;28;20035;-35
2021/11/17 09:43:09;;;;;;;115.00;42.08;;;;;;;6.82;100.00;102092.94;5074829;28;20032;-35
2021/11/17 09:45:36;;;;;;;124.65;42.03;;;;;;;6.85;100.00;102094.47;5074520;28;20044;-35
2021/11/17 09:48:02;;;;;;;125.47;46.03;;;;;;;6.88;100.00;102100.34;5074796;28;20024;-35
2021/11/17 09:50:31;;;;;;;;;;;;;;;6.92;100.00;102093.56;5074555;28;20129;-35
2021/11/17 09:53:29;;;;;;;135.20;45.58;;;;;;;6.96;100.00;102094.91;5074070;28;19908;-35
2021/11/17 09:56:03;;;;;;;120.28;44.63;;;;;;;7.01;100.00;102098.91;5074890;28;20029;-35
2021/11/17 09:58:39;;;;;;;128.43;45.92;;;;;;;7.02;100.00;102096.03;5074209;28;20562;-35
2021/11/17 10:01:35;;;;;;;130.73;44.27;;;;;;;7.05;100.00;102109.16;5073705;28;20024;-36
2021/11/17 10:04:21;;;;;;;116.63;43.60;;;;;;;7.09;100.00;102104.25;5074208;28;20025;-35
2021/11/17 10:10:09;;;;;;;133.25;45.97;;;;;;;7.11;100.00;102088.75;5073858;28;20497;-35
2021/11/17 10:15:20;;;;;;;129.63;44.90;;;;;;;7.27;100.00;102115.59;5074451;28;20460;-35
2021/11/17 10:18:07;;;;;;;120.72;43.38;;;;;;;7.31;100.00;102119.56;5073327;28;20447;-35
2021/11/17 10:20:38;;;;;;;120.23;43.33;;;;;;;7.32;100.00;102118.56;5051336;28;20094;-35
2021/11/17 10:23:06;;;;;;;122.70;44.95;;;;;;;7.33;100.00;102109.47;5051351;28;20037;-35
2021/11/17 10:25:49;;;;;;;118.97;43.47;;;;;;;7.42;100.00;102113.78;5051547;28;20067;-35
2021/11/17 10:28:23;;;;;;;122.50;44.30;;;;;;;7.44;100.00;102109.06;5051310;28;20528;-35
2021/11/17 10:31:01;;;;;;;120.57;43.55;;;;;;;7.49;100.00;102111.22;5051146;28;20453;-35
2021/11/17 10:34:05;;;;;;;117.18;42.75;;;;;;;7.56;100.00;102116.69;5051329;28;20037;-35
2021/11/17 10:36:43;;;;;;;110.63;41.33;;;;;;;7.62;100.00;102094.47;5047437;28;20033;-35
2021/11/17 10:39:21;;;;;;;111.10;43.53;;;;;;;7.76;100.00;102112.53;5051710;28;20052;-35
2021/11/17 10:42:29;;;;;;;118.07;43.58;;;;;;;7.81;100.00;102118.19;5050811;28;20029;-35
2021/11/17 10:45:20;;;;;;;108.30;41.83;;;;;;;7.80;100.00;102115.66;4971908;28;20495;-35
2021/11/17 10:47:49;;;;;;;116.10;43.25;;;;;;;7.80;100.00;102123.75;4972620;28;20034;-35
2021/11/17 10:50:17;;;;;;;109.75;42.05;;;;;;;7.72;100.00;102112.03;4972634;28;20078;-35
2021/11/17 10:52:50;;;;;;;118.40;43.05;;;;;;;7.81;100.00;102122.72;4972087;28;20085;-35
2021/11/17 10:55:20;;;;;;;112.15;43.13;;;;;;;7.85;100.00;102121.34;4972428;28;20046;-35
2021/11/17 10:57:46;;;;;;;119.13;42.72;;;;;;;7.93;100.00;102123.97;4994745;28;20046;-35
2021/11/17 11:00:15;;;;;;;115.25;43.20;;;;;;;7.92;100.00;102123.16;5011565;28;20040;-35
2021/11/17 11:02:42;;;;;;;116.07;42.28;;;;;;;7.89;100.00;102120.81;5011116;28;20038;-35
2021/11/17 11:05:20;;;;;;;123.80;44.05;;;;;;;7.98;100.00;102125.09;5010957;28;20033;-35
2021/11/17 11:08:07;;;;;;;123.57;45.15;;;;;;;8.02;100.00;102132.81;5011659;28;20445;-35
2021/11/17 11:10:40;;;;;;;133.82;49.53;;;;;;;8.07;100.00;102136.66;5011276;28;20037;-35
2021/11/17 11:13:11;;;;;;;126.15;46.50;;;;;;;8.11;100.00;102137.97;5011644;28;20386;-35
2021/11/17 11:15:39;;;;;;;142.15;49.10;;;;;;;8.18;100.00;102141.56;5011029;28;20108;-35
2021/11/17 11:18:04;;;;;;;139.10;48.13;;;;;;;8.16;100.00;102118.53;5011054;28;20030;-35
2021/11/17 11:20:37;;;;;;;139.17;48.83;;;;;;;8.21;100.00;102119.66;5014695;28;20087;-35
2021/11/17 11:23:05;;;;;;;147.13;53.22;;;;;;;8.41;100.00;102136.16;5073242;28;20032;-35
2021/11/17 11:25:49;;;;;;;147.38;51.00;;;;;;;8.49;100.00;102130.69;5073234;28;20112;-35
2021/11/17 11:28:20;;;;;;;146.40;49.50;;;;;;;8.57;100.00;102123.50;5073222;28;20064;-36
2021/11/17 11:31:09;;;;;;;134.45;51.40;;;;;;;8.66;100.00;102127.78;5072895;28;20419;-35
2021/11/17 11:33:40;;;;;;;146.65;50.65;;;;;;;8.74;100.00;102131.22;5072752;28;20033;-35
2021/11/17 11:36:11;;;;;;;139.02;49.80;;;;;;;8.82;100.00;102130.28;5073642;28;20048;-35
2021/11/17 11:38:41;;;;;;;120.45;48.28;;;;;;;8.82;100.00;102135.66;5072762;28;20052;-35
2021/11/17 11:41:25;;;;;;;133.55;50.17;;;;;;;8.84;100.00;102139.03;5072587;28;20025;-35
2021/11/17 11:46:48;;;;;;;124.93;48.58;;;;;;;8.86;100.00;102136.97;5072997;28;20032;-35
2021/11/17 11:49:36;;;;;;;129.18;50.42;;;;;;;8.86;100.00;102130.75;5073001;28;20037;-35
2021/11/17 11:52:08;;;;;;;123.93;47.03;;;;;;;8.88;100.00;102134.06;5072672;28;20406;-35
2021/11/17 11:54:56;;;;;;;132.13;48.78;;;;;;;8.95;100.00;102126.91;5073265;28;20036;-35
2021/11/17 11:57:21;;;;;;;118.03;48.65;;;;;;;8.98;100.00;102132.78;5072705;28;20033;-35
2021/11/17 11:59:47;;;;;;;124.13;50.40;;;;;;;8.98;100.00;102130.09;5073730;28;20507;-35
2021/11/17 12:02:19;;;;;;;116.30;50.60;;;;;;;9.10;100.00;102126.88;5073052;28;20533;-35
2021/11/17 12:04:53;;;;;;;106.80;46.78;;;;;;;9.08;100.00;102135.19;5076697;28;20032;-35
2021/11/17 12:07:24;;;;;;;111.95;49.15;;;;;;;9.11;100.00;102129.38;5076213;28;20028;-35
2021/11/17 12:10:11;;;;;;;116.38;50.00;;;;;;;9.17;100.00;102135.88;5076584;28;20028;-35
2021/11/17 12:12:40;;;;;;;105.53;46.80;;;;;;;9.24;100.00;102139.50;5076167;28;20086;-35
2021/11/17 12:15:33;;;;;;;110.05;47.05;;;;;;;9.27;100.00;102136.41;5076495;28;20075;-35
2021/11/17 12:18:09;;;;;;;104.28;46.95;;;;;;;9.32;100.00;102139.41;5076345;28;20384;-36
2021/11/17 12:20:40;;;;;;;90.28;42.22;;;;;;;9.35;100.00;102136.28;5075907;28;20029;-35
2021/11/17 12:23:25;;;;;;;92.72;41.72;;;;;;;9.47;100.00;102136.66;5076664;28;20111;-35
2021/11/17 12:25:56;;;;;;;82.32;37.17;;;;;;;9.50;100.00;102137.06;5075932;28;20040;-35
2021/11/17 12:28:22;;;;;;;69.75;35.42;;;;;;;9.50;100.00;102134.38;5075678;28;20021;-33
2021/11/17 12:31:10;;;;;;;73.18;34.58;;;;;;;9.54;100.00;102135.66;5075584;28;20086;-33
2021/11/17 12:33:35;;;;;;;73.93;35.15;;;;;;;9.43;100.00;102121.84;5076131;28;20108;-35
2021/11/17 12:36:10;;;;;;;78.90;36.57;;;;;;;9.53;100.00;102128.59;5075664;28;20115;-35
2021/11/17 12:38:36;;;;;;;74.78;33.15;;;;;;;9.63;100.00;102138.25;5075274;28;20017;-35
2021/11/17 12:41:38;;;;;;;74.47;34.88;;;;;;;9.72;100.00;102126.28;5075079;28;20024;-36
2021/11/17 12:44:43;;;;;;;70.32;33.90;;;;;;;9.81;100.00;102130.53;5053030;28;20116;-35
2021/11/17 12:47:19;;;;;;;60.92;29.45;;;;;;;9.89;100.00;102126.84;4974338;28;20042;-36
2021/11/17 12:50:10;;;;;;;65.93;31.67;;;;;;;9.94;100.00;102141.44;4974561;28;20038;-35
2021/11/17 12:52:47;;;;;;;65.90;30.65;;;;;;;9.96;100.00;102139.38;4916828;29;20043;-36
2021/11/17 12:55:21;;;;;;;50.85;26.30;;;;;;;9.93;100.00;102128.97;4917393;29;20175;-35
2021/11/17 12:57:59;;;;;;;55.03;27.15;;;;;;;9.92;100.00;102140.81;4916728;29;20111;-35
2021/11/17 13:00:41;;;;;;;52.08;27.65;;;;;;;9.90;100.00;102140.13;4916581;29;20047;-35
2021/11/17 13:03:09;;;;;;;60.90;28.95;;;;;;;9.87;100.00;102140.56;4917089;29;20184;-35
2021/11/17 13:05:39;;;;;;;53.17;27.27;;;;;;;9.85;100.00;102142.59;4917250;29;20044;-35
2021/11/17 13:08:04;;;;;;;45.83;25.73;;;;;;;9.85;100.00;102145.28;4916356;29;20122;-36
2021/11/17 13:10:48;;;;;;;55.67;26.87;;;;;;;9.73;100.00;102131.50;4916976;29;20262;-35
2021/11/17 13:13:21;;;;;;;49.75;26.95;;;;;;;9.82;100.00;102153.81;4916320;29;20515;-35
2021/11/17 13:16:11;;;;;;;51.42;26.40;;;;;;;9.85;100.00;102158.81;4916542;29;20040;-35
2021/11/17 13:18:48;;;;;;;52.33;27.58;;;;;;;9.87;100.00;102148.66;4930447;29;20040;-35
2021/11/17 13:21:23;;;;;;;50.60;27.75;;;;;;;9.73;100.00;102122.56;4935765;29;20042;-35
2021/11/17 13:24:03;;;;;;;57.80;28.45;;;;;;;9.92;100.00;102148.91;4976981;28;20038;-35
2021/11/17 13:26:44;;;;;;;47.20;27.13;;;;;;;9.95;100.00;102148.50;5013023;28;20022;-35
2021/11/17 13:29:21;;;;;;;48.70;26.52;;;;;;;9.99;100.00;102149.78;5032601;28;20049;-35
2021/11/17 13:31:50;;;;;;;44.28;23.63;;;;;;;9.99;100.00;102157.88;5074212;28;20495;-35
2021/11/17 13:34:38;;;;;;;56.22;26.00;;;;;;;10.02;100.00;102160.22;5074495;28;20036;-35
2021/11/17 13:37:13;;;;;;;48.40;26.90;;;;;;;10.01;100.00;102153.16;5075170;28;20039;-35
2021/11/17 13:39:38;;;;;;;49.90;25.10;;;;;;;9.93;100.00;102155.16;5074355;28;20067;-35
2021/11/17 13:42:03;;;;;;;51.10;25.10;;;;;;;9.85;100.00;102150.69;5074779;28;20060;-35
2021/11/17 13:44:29;;;;;;;52.17;26.60;;;;;;;9.92;100.00;102164.28;5073968;28;20052;-35
2021/11/17 13:47:08;;;;;;;57.90;26.77;;;;;;;9.91;100.00;102174.25;5074206;28;20031;-35
2021/11/17 13:49:36;;;;;;;45.53;25.40;;;;;;;9.82;100.00;102166.47;5074179;28;20124;-36
2021/11/17 13:52:02;;;;;;;51.33;27.80;;;;;;;9.87;100.00;102188.34;5073825;28;20028;-35
2021/11/17 13:54:28;;;;;;;45.03;27.17;;;;;;;9.87;100.00;102186.47;5074454;28;20024;-35
2021/11/17 13:56:54;;;;;;;51.95;27.95;;;;;;;9.75;100.00;102178.03;5074013;28;20023;-35
2021/11/17 13:59:19;;;;;;;;;;;;;;;9.90;100.00;102188.78;5074617;28;20155;-36
2021/11/17 14:01:45;;;;;;;56.95;28.40;;;;;;;9.86;100.00;102197.47;5073578;28;20386;-35
2021/11/17 14:04:10;;;;;;;48.23;27.77;;;;;;;9.71;100.00;102175.91;5074362;28;20020;-35
2021/11/17 14:06:36;;;;;;;50.60;28.48;;;;;;;9.86;100.00;102192.91;5074011;28;20370;-36
2021/11/17 14:09:03;;;;;;;52.10;26.80;;;;;;;9.82;100.00;102182.69;5074401;28;20040;-36
2021/11/17 14:11:31;;;;;;;50.92;27.33;;;;;;;9.82;100.00;102185.41;5073794;28;20025;-35
2021/11/17 14:13:56;;;;;;;52.65;27.40;;;;;;;9.69;100.00;102161.78;5074229;28;20041;-35
2021/11/17 14:16:22;;;;;;;52.20;27.23;;;;;;;9.83;100.00;102181.66;5074109;28;20082;-35